sensor_id;sensor_type;location;lat;lon;timestamp;pressure;altitude;pressure_sealevel;temperature;humidity
31062;BME280;17724;53.546;9.974;2022-11-15T00:00:46;101148.16;;;7.76;100.00
31062;BME280;17724;53.546;9.974;2022-11-15T00:04:46;101144.13;;;7.79;100.00
31062;BME280;17724;53.546;9.974;2022-11-15T00:08:47;101139.09;;;7.76;100.00
31062;BME280;17724;53.546;9.974;2022-11-15T00:12:47;101135.44;;;7.82;100.00
31062;BME280;17724;53.546;9.974;2022-11-15T00:16:47;101143.38;;;7.72;100.00
31062;BME280;17724;53.546;9.974;2022-11-15T00:20:48;101145.03;;;7.73;100.00
31062;BME280;17724;53.546;9.974;2022-11-15T00:24:48;101145.97;;;7.97;100.00
31062;BME280;17724;53.546;9.974;2022-11-15T00:28:52;101147.00;;;7.84;100.00
31062;BME280;17724;53.546;9.974;2022-11-15T00:32:53;101152.66;;;7.71;100.00
31062;BME280;17724;53.546;9.974;2022-11-15T00:36:53;101144.63;;;7.87;100.00
31062;BME280;17724;53.546;9.974;2022-11-15T00:40:53;101142.59;;;7.83;100.00
31062;BME280;17724;53.546;9.974;2022-11-15T00:44:54;101140.91;;;7.52;100.00
31062;BME280;17724;53.546;9.974;2022-11-15T00:48:54;101137.91;;;7.72;100.00
31062;BME280;17724;53.546;9.974;2022-11-15T00:52:55;101138.16;;;7.33;100.00
31062;BME280;17724;53.546;9.974;2022-11-15T00:56:55;101140.91;;;7.52;100.00
31062;BME280;17724;53.546;9.974;2022-11-15T01:00:55;101145.81;;;7.61;100.00
31062;BME280;17724;53.546;9.974;2022-11-15T01:04:56;101139.75;;;7.59;100.00
31062;BME280;17724;53.546;9.974;2022-11-15T01:08:56;101128.22;;;7.39;100.00
31062;BME280;17724;53.546;9.974;2022-11-15T01:12:57;101135.03;;;7.48;100.00
31062;BME280;17724;53.546;9.974;2022-11-15T01:16:57;101125.03;;;7.24;100.00
31062;BME280;17724;53.546;9.974;2022-11-15T01:20:58;101127.22;;;7.52;100.00
31062;BME280;17724;53.546;9.974;2022-11-15T01:24:58;101125.69;;;7.56;100.00
31062;BME280;17724;53.546;9.974;2022-11-15T01:28:58;101119.72;;;7.10;100.00
31062;BME280;17724;53.546;9.974;2022-11-15T01:32:59;101135.28;;;7.10;100.00
31062;BME280;17724;53.546;9.974;2022-11-15T01:36:59;101113.16;;;7.30;100.00
31062;BME280;17724;53.546;9.974;2022-11-15T01:41:00;101114.47;;;7.27;100.00
31062;BME280;17724;53.546;9.974;2022-11-15T01:45:00;101115.09;;;7.11;100.00
31062;BME280;17724;53.546;9.974;2022-11-15T01:49:05;101110.44;;;7.11;100.00
31062;BME280;17724;53.546;9.974;2022-11-15T01:53:11;101112.50;;;7.16;100.00
31062;BME280;17724;53.546;9.974;2022-11-15T01:57:13;101100.94;;;7.14;100.00
31062;BME280;17724;53.546;9.974;2022-11-15T02:01:13;101092.44;;;7.22;100.00
31062;BME280;17724;53.546;9.974;2022-11-15T02:05:14;101086.22;;;7.15;100.00
31062;BME280;17724;53.546;9.974;2022-11-15T02:09:16;101080.19;;;7.25;100.00
31062;BME280;17724;53.546;9.974;2022-11-15T02:13:17;101076.66;;;7.54;100.00
31062;BME280;17724;53.546;9.974;2022-11-15T02:17:32;101084.75;;;7.61;100.00
31062;BME280;17724;53.546;9.974;2022-11-15T02:21:43;101092.06;;;7.67;100.00
31062;BME280;17724;53.546;9.974;2022-11-15T02:25:57;101089.31;;;7.67;100.00
31062;BME280;17724;53.546;9.974;2022-11-15T02:43:24;101071.47;;;7.34;100.00
31062;BME280;17724;53.546;9.974;2022-11-15T02:47:46;101056.88;;;7.22;100.00
31062;BME280;17724;53.546;9.974;2022-11-15T02:51:49;101063.84;;;7.36;100.00
31062;BME280;17724;53.546;9.974;2022-11-15T02:55:51;101035.72;;;7.29;100.00
31062;BME280;17724;53.546;9.974;2022-11-15T03:08:39;101063.81;;;7.55;100.00
31062;BME280;17724;53.546;9.974;2022-11-15T03:13:10;101063.94;;;7.60;100.00
31062;BME280;17724;53.546;9.974;2022-11-15T03:21:21;101059.53;;;7.59;100.00
31062;BME280;17724;53.546;9.974;2022-11-15T03:25:24;101054.38;;;7.81;100.00
31062;BME280;17724;53.546;9.974;2022-11-15T03:29:31;101064.16;;;7.88;100.00
31062;BME280;17724;53.546;9.974;2022-11-15T03:33:32;101051.78;;;7.56;100.00
31062;BME280;17724;53.546;9.974;2022-11-15T03:37:41;101052.06;;;7.66;100.00
31062;BME280;17724;53.546;9.974;2022-11-15T03:41:49;101053.81;;;7.60;100.00
31062;BME280;17724;53.546;9.974;2022-11-15T03:45:58;101049.00;;;7.74;100.00
31062;BME280;17724;53.546;9.974;2022-11-15T03:50:17;101040.41;;;7.71;100.00
31062;BME280;17724;53.546;9.974;2022-11-15T03:54:18;101036.56;;;7.60;100.00
31062;BME280;17724;53.546;9.974;2022-11-15T03:58:19;101056.66;;;7.54;100.00
31062;BME280;17724;53.546;9.974;2022-11-15T04:02:19;101056.88;;;7.22;100.00
31062;BME280;17724;53.546;9.974;2022-11-15T04:06:19;101059.00;;;7.20;100.00
31062;BME280;17724;53.546;9.974;2022-11-15T04:10:20;101049.06;;;7.56;100.00
31062;BME280;17724;53.546;9.974;2022-11-15T04:14:20;101047.06;;;7.63;100.00
31062;BME280;17724;53.546;9.974;2022-11-15T04:18:21;101043.88;;;7.66;100.00
31062;BME280;17724;53.546;9.974;2022-11-15T04:22:22;101040.31;;;7.77;100.00
31062;BME280;17724;53.546;9.974;2022-11-15T04:26:41;101041.13;;;7.78;100.00
31062;BME280;17724;53.546;9.974;2022-11-15T04:30:41;101034.94;;;7.71;100.00
31062;BME280;17724;53.546;9.974;2022-11-15T04:34:41;101043.34;;;7.57;100.00
31062;BME280;17724;53.546;9.974;2022-11-15T04:38:42;101043.25;;;7.64;100.00
31062;BME280;17724;53.546;9.974;2022-11-15T04:42:43;101032.75;;;7.61;100.00
31062;BME280;17724;53.546;9.974;2022-11-15T04:46:43;101042.44;;;7.45;100.00
31062;BME280;17724;53.546;9.974;2022-11-15T04:50:44;101035.50;;;7.61;100.00
31062;BME280;17724;53.546;9.974;2022-11-15T04:54:47;101048.06;;;7.80;100.00
31062;BME280;17724;53.546;9.974;2022-11-15T04:58:50;101050.56;;;7.94;100.00
31062;BME280;17724;53.546;9.974;2022-11-15T05:02:51;101048.59;;;8.12;100.00
31062;BME280;17724;53.546;9.974;2022-11-15T05:07:10;101048.47;;;8.07;100.00
31062;BME280;17724;53.546;9.974;2022-11-15T05:11:10;101046.47;;;8.14;100.00
31062;BME280;17724;53.546;9.974;2022-11-15T05:15:11;101045.50;;;8.21;100.00
31062;BME280;17724;53.546;9.974;2022-11-15T05:19:11;101049.06;;;8.09;100.00
31062;BME280;17724;53.546;9.974;2022-11-15T05:23:11;101039.19;;;8.08;100.00
31062;BME280;17724;53.546;9.974;2022-11-15T05:27:12;101038.81;;;8.05;100.00
31062;BME280;17724;53.546;9.974;2022-11-15T05:31:14;101031.91;;;8.26;100.00
31062;BME280;17724;53.546;9.974;2022-11-15T05:35:59;101028.97;;;8.27;100.00
31062;BME280;17724;53.546;9.974;2022-11-15T05:40:01;101026.22;;;8.27;100.00
31062;BME280;17724;53.546;9.974;2022-11-15T05:44:03;101028.16;;;8.38;100.00
31062;BME280;17724;53.546;9.974;2022-11-15T05:48:07;101022.03;;;8.36;100.00
31062;BME280;17724;53.546;9.974;2022-11-15T05:52:11;101034.94;;;8.59;100.00
31062;BME280;17724;53.546;9.974;2022-11-15T05:56:14;101025.28;;;8.45;100.00
31062;BME280;17724;53.546;9.974;2022-11-15T06:00:15;101035.53;;;8.61;100.00
31062;BME280;17724;53.546;9.974;2022-11-15T06:04:15;101041.38;;;8.65;100.00
31062;BME280;17724;53.546;9.974;2022-11-15T06:08:16;101043.38;;;8.81;100.00
31062;BME280;17724;53.546;9.974;2022-11-15T06:12:16;101045.91;;;8.83;100.00
31062;BME280;17724;53.546;9.974;2022-11-15T06:16:17;101046.97;;;8.82;100.00
31062;BME280;17724;53.546;9.974;2022-11-15T06:20:17;101047.19;;;8.80;100.00
31062;BME280;17724;53.546;9.974;2022-11-15T06:24:18;101053.78;;;8.68;100.00
31062;BME280;17724;53.546;9.974;2022-11-15T06:28:18;101055.31;;;8.52;100.00
31062;BME280;17724;53.546;9.974;2022-11-15T06:32:19;101046.63;;;8.67;100.00
31062;BME280;17724;53.546;9.974;2022-11-15T06:36:19;101046.84;;;8.77;100.00
31062;BME280;17724;53.546;9.974;2022-11-15T06:40:20;101051.88;;;8.56;100.00
31062;BME280;17724;53.546;9.974;2022-11-15T06:44:21;101062.56;;;8.34;100.00
31062;BME280;17724;53.546;9.974;2022-11-15T06:48:21;101059.63;;;8.48;100.00
31062;BME280;17724;53.546;9.974;2022-11-15T06:52:22;101058.53;;;8.49;100.00
31062;BME280;17724;53.546;9.974;2022-11-15T06:56:22;101067.44;;;8.21;100.00
31062;BME280;17724;53.546;9.974;2022-11-15T07:00:22;101065.47;;;8.39;100.00
31062;BME280;17724;53.546;9.974;2022-11-15T07:04:23;101063.81;;;8.62;100.00
31062;BME280;17724;53.546;9.974;2022-11-15T07:08:26;101066.91;;;8.54;100.00
31062;BME280;17724;53.546;9.974;2022-11-15T07:12:27;101075.47;;;8.57;100.00
31062;BME280;17724;53.546;9.974;2022-11-15T07:16:27;101078.56;;;8.49;100.00
31062;BME280;17724;53.546;9.974;2022-11-15T07:20:31;101086.72;;;8.26;100.00
31062;BME280;17724;53.546;9.974;2022-11-15T07:24:35;101089.00;;;8.29;100.00
31062;BME280;17724;53.546;9.974;2022-11-15T07:28:39;101076.09;;;8.18;100.00
31062;BME280;17724;53.546;9.974;2022-11-15T07:32:39;101094.84;;;8.32;100.00
31062;BME280;17724;53.546;9.974;2022-11-15T07:36:40;101096.50;;;8.22;100.00
31062;BME280;17724;53.546;9.974;2022-11-15T07:40:40;101084.34;;;8.29;100.00
31062;BME280;17724;53.546;9.974;2022-11-15T07:44:41;101094.34;;;8.24;100.00
31062;BME280;17724;53.546;9.974;2022-11-15T07:48:41;101084.09;;;8.19;100.00
31062;BME280;17724;53.546;9.974;2022-11-15T07:52:42;101081.59;;;8.29;100.00
31062;BME280;17724;53.546;9.974;2022-11-15T07:56:42;101085.59;;;8.57;100.00
31062;BME280;17724;53.546;9.974;2022-11-15T08:00:42;101076.66;;;8.73;100.00
31062;BME280;17724;53.546;9.974;2022-11-15T08:04:43;101071.41;;;8.72;100.00
31062;BME280;17724;53.546;9.974;2022-11-15T08:08:44;101077.16;;;8.82;100.00
31062;BME280;17724;53.546;9.974;2022-11-15T08:12:44;101079.53;;;8.78;100.00
31062;BME280;17724;53.546;9.974;2022-11-15T08:16:44;101083.69;;;8.69;100.00
31062;BME280;17724;53.546;9.974;2022-11-15T08:20:45;101077.00;;;8.65;100.00
31062;BME280;17724;53.546;9.974;2022-11-15T08:24:45;101084.63;;;8.39;100.00
31062;BME280;17724;53.546;9.974;2022-11-15T08:28:46;101070.69;;;8.53;100.00
31062;BME280;17724;53.546;9.974;2022-11-15T08:32:47;101052.13;;;8.55;100.00
31062;BME280;17724;53.546;9.974;2022-11-15T08:36:47;101064.13;;;8.66;100.00
31062;BME280;17724;53.546;9.974;2022-11-15T08:40:48;101077.38;;;8.45;100.00
31062;BME280;17724;53.546;9.974;2022-11-15T08:44:48;101083.22;;;8.60;100.00
31062;BME280;17724;53.546;9.974;2022-11-15T08:48:49;101095.25;;;8.71;100.00
31062;BME280;17724;53.546;9.974;2022-11-15T08:52:52;101093.81;;;8.80;100.00
31062;BME280;17724;53.546;9.974;2022-11-15T08:56:52;101075.44;;;8.81;100.00
31062;BME280;17724;53.546;9.974;2022-11-15T09:00:53;101078.44;;;8.91;100.00
31062;BME280;17724;53.546;9.974;2022-11-15T09:04:54;101075.09;;;8.77;100.00
31062;BME280;17724;53.546;9.974;2022-11-15T09:08:54;101082.84;;;8.92;100.00
31062;BME280;17724;53.546;9.974;2022-11-15T09:12:57;101074.13;;;8.95;100.00
31062;BME280;17724;53.546;9.974;2022-11-15T09:16:57;101087.84;;;8.95;100.00
31062;BME280;17724;53.546;9.974;2022-11-15T09:20:59;101078.66;;;8.89;100.00
31062;BME280;17724;53.546;9.974;2022-11-15T09:24:59;101080.06;;;9.16;100.00
31062;BME280;17724;53.546;9.974;2022-11-15T09:29:00;101079.81;;;9.17;100.00
31062;BME280;17724;53.546;9.974;2022-11-15T09:33:09;101068.13;;;9.22;99.94
31062;BME280;17724;53.546;9.974;2022-11-15T09:37:10;101069.63;;;9.29;99.39
31062;BME280;17724;53.546;9.974;2022-11-15T09:45:26;101072.47;;;9.46;98.81
31062;BME280;17724;53.546;9.974;2022-11-15T09:49:29;101091.41;;;9.48;98.68
31062;BME280;17724;53.546;9.974;2022-11-15T09:53:39;101086.06;;;9.41;99.70
31062;BME280;17724;53.546;9.974;2022-11-15T09:57:50;101072.69;;;9.45;99.75
31062;BME280;17724;53.546;9.974;2022-11-15T10:06:02;101075.59;;;9.67;99.64
31062;BME280;17724;53.546;9.974;2022-11-15T10:10:11;101085.94;;;9.76;99.06
31062;BME280;17724;53.546;9.974;2022-11-15T10:14:26;101082.03;;;9.89;98.75
31062;BME280;17724;53.546;9.974;2022-11-15T10:19:00;101081.22;;;9.88;99.04
31062;BME280;17724;53.546;9.974;2022-11-15T10:23:06;101066.41;;;9.90;98.40
31062;BME280;17724;53.546;9.974;2022-11-15T10:27:17;101067.81;;;9.92;98.85
31062;BME280;17724;53.546;9.974;2022-11-15T10:31:27;101053.34;;;9.97;98.20
31062;BME280;17724;53.546;9.974;2022-11-15T10:35:29;101055.19;;;10.08;98.01
31062;BME280;17724;53.546;9.974;2022-11-15T10:39:30;101053.78;;;10.05;98.36
31062;BME280;17724;53.546;9.974;2022-11-15T10:43:30;101040.88;;;10.23;97.90
31062;BME280;17724;53.546;9.974;2022-11-15T10:47:31;101044.56;;;10.28;98.20
31062;BME280;17724;53.546;9.974;2022-11-15T10:51:33;101039.47;;;10.37;97.71
31062;BME280;17724;53.546;9.974;2022-11-15T10:55:40;101026.72;;;10.48;97.27
31062;BME280;17724;53.546;9.974;2022-11-15T10:59:49;101023.06;;;10.42;97.81
31062;BME280;17724;53.546;9.974;2022-11-15T11:04:05;101016.03;;;10.51;97.49
31062;BME280;17724;53.546;9.974;2022-11-15T11:12:10;101012.41;;;10.68;97.42
31062;BME280;17724;53.546;9.974;2022-11-15T11:20:33;101002.97;;;10.80;96.78
31062;BME280;17724;53.546;9.974;2022-11-15T11:46:24;100983.13;;;11.00;95.68
31062;BME280;17724;53.546;9.974;2022-11-15T11:50:27;100984.53;;;11.03;95.71
31062;BME280;17724;53.546;9.974;2022-11-15T11:54:32;100988.06;;;10.98;95.86
31062;BME280;17724;53.546;9.974;2022-11-15T11:58:39;100979.22;;;10.96;95.99
31062;BME280;17724;53.546;9.974;2022-11-15T12:02:45;100978.84;;;11.09;95.87
31062;BME280;17724;53.546;9.974;2022-11-15T12:07:08;100975.88;;;11.16;96.05
31062;BME280;17724;53.546;9.974;2022-11-15T12:11:20;100975.41;;;11.24;95.58
31062;BME280;17724;53.546;9.974;2022-11-15T12:15:27;100971.06;;;11.28;95.86
31062;BME280;17724;53.546;9.974;2022-11-15T12:19:30;100966.91;;;11.26;95.30
31062;BME280;17724;53.546;9.974;2022-11-15T12:23:44;100963.69;;;11.34;95.23
31062;BME280;17724;53.546;9.974;2022-11-15T12:36:38;100957.94;;;11.95;93.48
31062;BME280;17724;53.546;9.974;2022-11-15T12:41:12;100944.16;;;11.95;93.25
31062;BME280;17724;53.546;9.974;2022-11-15T12:53:32;100926.31;;;12.07;93.79
31062;BME280;17724;53.546;9.974;2022-11-15T12:57:37;100927.47;;;12.12;93.21
31062;BME280;17724;53.546;9.974;2022-11-15T13:13:44;100903.78;;;12.16;92.76
31062;BME280;17724;53.546;9.974;2022-11-15T13:17:54;100900.25;;;12.25;92.52
31062;BME280;17724;53.546;9.974;2022-11-15T13:21:56;100888.34;;;12.15;93.00
31062;BME280;17724;53.546;9.974;2022-11-15T13:26:15;100886.41;;;12.15;93.61
31062;BME280;17724;53.546;9.974;2022-11-15T13:30:25;100886.19;;;12.22;93.52
31062;BME280;17724;53.546;9.974;2022-11-15T13:34:32;100893.63;;;12.21;93.55
31062;BME280;17724;53.546;9.974;2022-11-15T13:38:38;100879.84;;;12.21;93.87
31062;BME280;17724;53.546;9.974;2022-11-15T13:42:39;100869.09;;;12.25;93.67
31062;BME280;17724;53.546;9.974;2022-11-15T13:46:39;100857.50;;;12.28;93.61
31062;BME280;17724;53.546;9.974;2022-11-15T13:50:40;100852.00;;;12.28;93.63
31062;BME280;17724;53.546;9.974;2022-11-15T13:55:10;100852.59;;;12.40;93.37
31062;BME280;17724;53.546;9.974;2022-11-15T14:03:24;100861.22;;;12.49;93.06
31062;BME280;17724;53.546;9.974;2022-11-15T14:07:27;100851.00;;;12.49;92.92
31062;BME280;17724;53.546;9.974;2022-11-15T14:11:29;100871.72;;;12.57;92.60
31062;BME280;17724;53.546;9.974;2022-11-15T14:15:37;100855.94;;;12.42;92.78
31062;BME280;17724;53.546;9.974;2022-11-15T14:19:39;100853.50;;;12.51;92.93
31062;BME280;17724;53.546;9.974;2022-11-15T14:23:40;100847.44;;;12.54;92.85
31062;BME280;17724;53.546;9.974;2022-11-15T14:27:42;100838.88;;;12.50;92.96
31062;BME280;17724;53.546;9.974;2022-11-15T14:31:43;100832.25;;;12.51;93.01
31062;BME280;17724;53.546;9.974;2022-11-15T14:35:46;100837.19;;;12.44;93.14
31062;BME280;17724;53.546;9.974;2022-11-15T14:39:47;100847.16;;;12.55;92.91
31062;BME280;17724;53.546;9.974;2022-11-15T14:43:49;100851.84;;;12.55;93.08
31062;BME280;17724;53.546;9.974;2022-11-15T14:47:49;100848.22;;;12.44;93.18
31062;BME280;17724;53.546;9.974;2022-11-15T14:51:50;100838.88;;;12.50;93.28
31062;BME280;17724;53.546;9.974;2022-11-15T14:55:50;100831.41;;;12.46;93.43
31062;BME280;17724;53.546;9.974;2022-11-15T14:59:51;100839.16;;;12.49;93.52
31062;BME280;17724;53.546;9.974;2022-11-15T15:03:53;100827.50;;;12.37;93.60
31062;BME280;17724;53.546;9.974;2022-11-15T15:07:58;100832.47;;;12.40;93.72
31062;BME280;17724;53.546;9.974;2022-11-15T15:11:58;100839.66;;;12.41;93.99
31062;BME280;17724;53.546;9.974;2022-11-15T15:15:59;100839.63;;;12.30;93.83
31062;BME280;17724;53.546;9.974;2022-11-15T15:19:59;100842.59;;;12.24;94.49
31062;BME280;17724;53.546;9.974;2022-11-15T15:24:00;100834.91;;;12.26;94.26
31062;BME280;17724;53.546;9.974;2022-11-15T15:28:01;100845.94;;;12.21;94.46
31062;BME280;17724;53.546;9.974;2022-11-15T15:32:02;100851.06;;;12.07;94.90
31062;BME280;17724;53.546;9.974;2022-11-15T15:36:03;100850.03;;;12.13;95.06
31062;BME280;17724;53.546;9.974;2022-11-15T15:40:11;100833.94;;;12.00;95.36
31062;BME280;17724;53.546;9.974;2022-11-15T15:44:13;100836.97;;;11.98;95.45
31062;BME280;17724;53.546;9.974;2022-11-15T15:48:15;100838.38;;;12.01;95.60
31062;BME280;17724;53.546;9.974;2022-11-15T15:52:16;100839.16;;;11.96;95.81
31062;BME280;17724;53.546;9.974;2022-11-15T15:56:18;100830.84;;;11.91;95.67
31062;BME280;17724;53.546;9.974;2022-11-15T16:00:35;100829.53;;;11.99;95.75
31062;BME280;17724;53.546;9.974;2022-11-15T16:04:36;100832.22;;;11.89;96.05
31062;BME280;17724;53.546;9.974;2022-11-15T16:08:36;100829.19;;;11.85;96.16
31062;BME280;17724;53.546;9.974;2022-11-15T16:12:37;100820.13;;;11.90;96.02
31062;BME280;17724;53.546;9.974;2022-11-15T16:16:40;100823.41;;;11.87;96.43
31062;BME280;17724;53.546;9.974;2022-11-15T16:20:44;100808.28;;;11.89;96.11
31062;BME280;17724;53.546;9.974;2022-11-15T16:24:45;100806.28;;;11.84;96.41
31062;BME280;17724;53.546;9.974;2022-11-15T16:28:45;100798.50;;;11.76;97.07
31062;BME280;17724;53.546;9.974;2022-11-15T16:32:46;100793.78;;;11.72;97.19
31062;BME280;17724;53.546;9.974;2022-11-15T16:36:47;100773.34;;;11.63;97.61
31062;BME280;17724;53.546;9.974;2022-11-15T16:40:48;100783.06;;;11.75;97.34
31062;BME280;17724;53.546;9.974;2022-11-15T16:44:48;100776.97;;;11.68;97.70
31062;BME280;17724;53.546;9.974;2022-11-15T16:48:49;100774.56;;;11.77;97.10
31062;BME280;17724;53.546;9.974;2022-11-15T16:52:54;100778.63;;;11.69;97.88
31062;BME280;17724;53.546;9.974;2022-11-15T16:56:55;100778.88;;;11.68;97.74
31062;BME280;17724;53.546;9.974;2022-11-15T17:00:55;100778.88;;;11.63;98.04
31062;BME280;17724;53.546;9.974;2022-11-15T17:04:56;100777.44;;;11.55;98.87
31062;BME280;17724;53.546;9.974;2022-11-15T17:08:56;100769.44;;;11.53;99.22
31062;BME280;17724;53.546;9.974;2022-11-15T17:12:57;100779.66;;;11.58;99.51
31062;BME280;17724;53.546;9.974;2022-11-15T17:16:57;100780.16;;;11.50;99.72
31062;BME280;17724;53.546;9.974;2022-11-15T17:21:06;100769.38;;;11.48;100.00
31062;BME280;17724;53.546;9.974;2022-11-15T17:25:07;100773.03;;;11.54;100.00
31062;BME280;17724;53.546;9.974;2022-11-15T17:29:08;100770.00;;;11.55;100.00
31062;BME280;17724;53.546;9.974;2022-11-15T17:33:08;100764.50;;;11.60;100.00
31062;BME280;17724;53.546;9.974;2022-11-15T17:37:09;100760.72;;;11.67;100.00
31062;BME280;17724;53.546;9.974;2022-11-15T17:41:14;100762.34;;;11.63;100.00
31062;BME280;17724;53.546;9.974;2022-11-15T17:45:15;100757.94;;;11.67;100.00
31062;BME280;17724;53.546;9.974;2022-11-15T17:49:16;100764.88;;;11.69;100.00
31062;BME280;17724;53.546;9.974;2022-11-15T17:53:16;100746.00;;;11.51;100.00
31062;BME280;17724;53.546;9.974;2022-11-15T17:57:17;100745.28;;;11.66;100.00
31062;BME280;17724;53.546;9.974;2022-11-15T18:01:18;100748.59;;;11.68;100.00
31062;BME280;17724;53.546;9.974;2022-11-15T18:05:19;100742.22;;;11.62;100.00
31062;BME280;17724;53.546;9.974;2022-11-15T18:09:20;100745.59;;;11.74;100.00
31062;BME280;17724;53.546;9.974;2022-11-15T18:13:21;100738.66;;;11.67;100.00
31062;BME280;17724;53.546;9.974;2022-11-15T18:17:24;100732.88;;;11.68;100.00
31062;BME280;17724;53.546;9.974;2022-11-15T18:21:30;100727.06;;;11.59;100.00
31062;BME280;17724;53.546;9.974;2022-11-15T18:25:30;100721.28;;;11.61;100.00
31062;BME280;17724;53.546;9.974;2022-11-15T18:29:31;100720.22;;;11.67;100.00
31062;BME280;17724;53.546;9.974;2022-11-15T18:33:33;100714.19;;;11.80;100.00
31062;BME280;17724;53.546;9.974;2022-11-15T18:37:34;100708.97;;;11.74;100.00
31062;BME280;17724;53.546;9.974;2022-11-15T18:41:34;100713.13;;;11.81;100.00
31062;BME280;17724;53.546;9.974;2022-11-15T18:45:35;100717.47;;;11.72;100.00
31062;BME280;17724;53.546;9.974;2022-11-15T18:49:36;100700.66;;;11.69;100.00
31062;BME280;17724;53.546;9.974;2022-11-15T18:53:37;100693.78;;;11.66;100.00
31062;BME280;17724;53.546;9.974;2022-11-15T18:57:38;100692.06;;;11.60;100.00
31062;BME280;17724;53.546;9.974;2022-11-15T19:01:40;100691.53;;;11.58;100.00
31062;BME280;17724;53.546;9.974;2022-11-15T19:05:41;100695.09;;;11.53;100.00
31062;BME280;17724;53.546;9.974;2022-11-15T19:09:41;100707.78;;;11.59;100.00
31062;BME280;17724;53.546;9.974;2022-11-15T19:13:42;100705.09;;;11.70;100.00
31062;BME280;17724;53.546;9.974;2022-11-15T19:17:43;100716.63;;;11.67;100.00
31062;BME280;17724;53.546;9.974;2022-11-15T19:21:44;100706.19;;;11.74;99.80
31062;BME280;17724;53.546;9.974;2022-11-15T19:25:55;100701.72;;;11.63;99.68
31062;BME280;17724;53.546;9.974;2022-11-15T19:29:56;100707.84;;;11.70;99.87
31062;BME280;17724;53.546;9.974;2022-11-15T19:33:59;100699.00;;;11.73;99.73
31062;BME280;17724;53.546;9.974;2022-11-15T19:37:59;100700.34;;;11.60;100.00
31062;BME280;17724;53.546;9.974;2022-11-15T19:42:00;100700.59;;;11.53;100.00
31062;BME280;17724;53.546;9.974;2022-11-15T19:46:02;100695.63;;;11.55;100.00
31062;BME280;17724;53.546;9.974;2022-11-15T19:50:03;100699.78;;;11.58;100.00
31062;BME280;17724;53.546;9.974;2022-11-15T19:54:04;100690.47;;;11.69;99.72
31062;BME280;17724;53.546;9.974;2022-11-15T19:58:08;100679.47;;;11.69;99.30
31062;BME280;17724;53.546;9.974;2022-11-15T20:02:10;100689.63;;;11.69;99.51
31062;BME280;17724;53.546;9.974;2022-11-15T20:06:14;100686.31;;;11.67;99.27
31062;BME280;17724;53.546;9.974;2022-11-15T20:10:15;100685.41;;;11.51;99.40
31062;BME280;17724;53.546;9.974;2022-11-15T20:14:16;100687.91;;;11.52;99.44
31062;BME280;17724;53.546;9.974;2022-11-15T20:18:17;100682.44;;;11.57;99.40
31062;BME280;17724;53.546;9.974;2022-11-15T20:22:18;100683.50;;;11.51;98.79
31062;BME280;17724;53.546;9.974;2022-11-15T20:26:19;100680.97;;;11.45;99.02
31062;BME280;17724;53.546;9.974;2022-11-15T20:30:19;100685.09;;;11.37;99.39
31062;BME280;17724;53.546;9.974;2022-11-15T20:34:20;100689.22;;;11.40;99.41
31062;BME280;17724;53.546;9.974;2022-11-15T20:38:20;100689.22;;;11.40;98.86
31062;BME280;17724;53.546;9.974;2022-11-15T20:42:21;100684.09;;;11.58;98.18
31062;BME280;17724;53.546;9.974;2022-11-15T20:46:21;100685.94;;;11.43;98.29
31062;BME280;17724;53.546;9.974;2022-11-15T20:50:23;100674.59;;;11.34;98.29
31062;BME280;17724;53.546;9.974;2022-11-15T20:54:24;100680.13;;;11.39;98.59
31062;BME280;17724;53.546;9.974;2022-11-15T20:58:24;100665.25;;;11.40;98.28
31062;BME280;17724;53.546;9.974;2022-11-15T21:02:29;100672.72;;;11.45;97.92
31062;BME280;17724;53.546;9.974;2022-11-15T21:06:29;100673.81;;;11.44;97.87
31062;BME280;17724;53.546;9.974;2022-11-15T21:10:29;100664.13;;;11.36;97.42
31062;BME280;17724;53.546;9.974;2022-11-15T21:14:49;100661.34;;;11.26;98.13
31062;BME280;17724;53.546;9.974;2022-11-15T21:18:51;100647.00;;;11.29;98.08
31062;BME280;17724;53.546;9.974;2022-11-15T21:22:52;100650.13;;;11.38;97.52
31062;BME280;17724;53.546;9.974;2022-11-15T21:26:53;100649.84;;;11.44;97.15
31062;BME280;17724;53.546;9.974;2022-11-15T21:30:57;100649.28;;;11.37;97.12
31062;BME280;17724;53.546;9.974;2022-11-15T21:34:57;100649.81;;;11.34;97.36
31062;BME280;17724;53.546;9.974;2022-11-15T21:38:59;100652.00;;;11.32;96.87
31062;BME280;17724;53.546;9.974;2022-11-15T21:43:01;100651.47;;;11.35;97.19
31062;BME280;17724;53.546;9.974;2022-11-15T21:47:02;100653.31;;;11.24;96.70
31062;BME280;17724;53.546;9.974;2022-11-15T21:51:05;100656.34;;;11.23;96.88
31062;BME280;17724;53.546;9.974;2022-11-15T21:55:07;100645.06;;;11.24;96.90
31062;BME280;17724;53.546;9.974;2022-11-15T21:59:07;100647.88;;;11.29;96.46
31062;BME280;17724;53.546;9.974;2022-11-15T22:03:08;100643.69;;;11.22;95.95
31062;BME280;17724;53.546;9.974;2022-11-15T22:07:08;100643.63;;;11.17;96.24
31062;BME280;17724;53.546;9.974;2022-11-15T22:11:09;100635.97;;;11.19;96.08
31062;BME280;17724;53.546;9.974;2022-11-15T22:15:11;100641.50;;;11.29;95.51
31062;BME280;17724;53.546;9.974;2022-11-15T22:19:11;100640.13;;;11.21;95.57
31062;BME280;17724;53.546;9.974;2022-11-15T22:23:14;100637.59;;;11.20;95.00
31062;BME280;17724;53.546;9.974;2022-11-15T22:27:15;100627.63;;;11.08;95.38
31062;BME280;17724;53.546;9.974;2022-11-15T22:31:15;100628.44;;;11.09;95.38
31062;BME280;17724;53.546;9.974;2022-11-15T22:35:16;100626.50;;;11.04;95.58
31062;BME280;17724;53.546;9.974;2022-11-15T22:39:16;100623.22;;;11.02;95.79
31062;BME280;17724;53.546;9.974;2022-11-15T22:43:19;100625.38;;;11.00;95.34
31062;BME280;17724;53.546;9.974;2022-11-15T22:47:20;100626.59;;;11.15;95.17